createdAt,value
2023-03-17T00:01:54.398Z,100453.94
2023-03-17T00:04:24.206Z,100453.72
2023-03-17T00:06:51.746Z,100451.00
2023-03-17T00:09:19.838Z,100451.84
2023-03-17T00:11:47.000Z,100457.69
2023-03-17T00:14:26.941Z,100457.69
2023-03-17T00:16:53.495Z,100446.69
2023-03-17T00:19:26.581Z,100455.78
2023-03-17T00:21:53.195Z,100447.84
2023-03-17T00:24:19.657Z,100439.69
2023-03-17T00:26:46.130Z,100443.31
2023-03-17T00:29:13.269Z,100441.75
2023-03-17T00:31:40.141Z,100435.25
2023-03-17T00:34:07.907Z,100451.72
2023-03-17T00:36:34.597Z,100445.94
2023-03-17T00:39:01.447Z,100433.28
2023-03-17T00:41:29.444Z,100437.63
2023-03-17T00:43:56.143Z,100433.59
2023-03-17T00:46:35.331Z,100435.72
2023-03-17T00:49:03.657Z,100423.50
2023-03-17T00:51:30.061Z,100425.66
2023-03-17T00:53:56.965Z,100418.16
2023-03-17T00:56:23.400Z,100414.66
2023-03-17T00:58:49.943Z,100405.13
2023-03-17T01:01:16.508Z,100402.13
2023-03-17T01:03:43.009Z,100395.72
2023-03-17T01:06:12.955Z,100400.44
2023-03-17T01:08:41.074Z,100403.47
2023-03-17T01:11:14.849Z,100399.22
2023-03-17T01:13:41.610Z,100394.16
2023-03-17T01:16:12.323Z,100408.13
2023-03-17T01:18:39.641Z,100396.19
2023-03-17T01:21:06.683Z,100382.31
2023-03-17T01:23:33.913Z,100385.72
2023-03-17T01:26:00.668Z,100375.63
2023-03-17T01:28:27.106Z,100386.97
2023-03-17T01:30:53.558Z,100381.25
2023-03-17T01:33:20.647Z,100382.50
2023-03-17T01:35:47.230Z,100384.31
2023-03-17T01:38:15.047Z,100377.72
2023-03-17T01:40:47.962Z,100375.91
2023-03-17T01:43:24.520Z,100371.19
2023-03-17T01:46:16.016Z,100370.28
2023-03-17T01:49:06.699Z,100366.44
2023-03-17T01:51:51.454Z,100367.56
2023-03-17T01:54:42.010Z,100362.44
2023-03-17T01:57:32.607Z,100358.63
2023-03-17T02:00:05.219Z,100368.19
2023-03-17T02:02:37.672Z,100371.38
2023-03-17T02:05:06.846Z,100372.03
2023-03-17T02:07:34.032Z,100371.94
2023-03-17T02:10:00.942Z,100374.69
2023-03-17T02:12:29.156Z,100372.03
2023-03-17T02:14:55.928Z,100377.59
2023-03-17T02:17:24.835Z,100367.31
2023-03-17T02:19:51.817Z,100360.41
2023-03-17T02:22:19.550Z,100362.81
2023-03-17T02:24:51.082Z,100357.31
2023-03-17T02:27:22.995Z,100360.91
2023-03-17T02:29:49.587Z,100346.56
2023-03-17T02:32:18.448Z,100359.41
2023-03-17T02:34:47.130Z,100358.25
2023-03-17T02:37:15.031Z,100337.25
2023-03-17T02:39:41.506Z,100359.81
2023-03-17T02:42:08.572Z,100365.09
2023-03-17T02:44:35.383Z,100355.81
2023-03-17T02:47:01.991Z,100360.50
2023-03-17T02:49:29.387Z,100358.69
2023-03-17T02:51:55.933Z,100365.06
2023-03-17T02:54:22.446Z,100363.78
2023-03-17T02:56:48.936Z,100351.28
2023-03-17T02:59:16.127Z,100347.31
2023-03-17T03:01:42.794Z,100328.41
2023-03-17T03:04:09.550Z,100323.94
2023-03-17T03:06:37.415Z,100318.03
2023-03-17T03:09:03.852Z,100332.09
2023-03-17T03:11:30.326Z,100339.53
2023-03-17T03:13:56.938Z,100349.19
2023-03-17T03:16:24.059Z,100350.38
2023-03-17T03:18:50.569Z,100361.44
2023-03-17T03:21:17.015Z,100359.59
2023-03-17T03:23:43.461Z,100357.34
2023-03-17T03:26:09.884Z,100367.06
2023-03-17T03:28:36.388Z,100362.41
2023-03-17T03:31:02.848Z,100351.06
2023-03-17T03:33:29.300Z,100352.50
2023-03-17T03:35:55.803Z,100357.72
2023-03-17T03:38:22.496Z,100371.28
2023-03-17T03:40:48.910Z,100356.00
2023-03-17T03:43:22.845Z,100364.31
2023-03-17T03:45:50.337Z,100360.34
2023-03-17T03:48:17.020Z,100370.66
2023-03-17T03:50:43.482Z,100367.25
2023-03-17T03:53:09.971Z,100361.34
2023-03-17T03:55:36.432Z,100365.06
2023-03-17T03:58:02.989Z,100371.50
2023-03-17T04:00:29.795Z,100351.78
2023-03-17T04:02:56.469Z,100344.16
2023-03-17T04:05:23.062Z,100358.78
2023-03-17T04:07:49.454Z,100361.22
2023-03-17T04:10:16.432Z,100347.69
2023-03-17T04:12:43.323Z,100357.75
2023-03-17T04:15:13.744Z,100350.06
2023-03-17T04:17:40.208Z,100361.94
2023-03-17T04:20:07.236Z,100341.00
2023-03-17T04:22:33.792Z,100343.59
2023-03-17T04:25:00.330Z,100330.22
2023-03-17T04:27:27.043Z,100336.63
2023-03-17T04:29:53.731Z,100335.72
2023-03-17T04:32:20.778Z,100333.06
2023-03-17T04:34:47.199Z,100339.47
2023-03-17T04:37:14.092Z,100326.78
2023-03-17T04:39:40.553Z,100333.56
2023-03-17T04:42:07.561Z,100340.19
2023-03-17T04:44:34.091Z,100323.59
2023-03-17T04:47:00.897Z,100311.13
2023-03-17T04:49:28.004Z,100311.09
2023-03-17T04:51:54.525Z,100293.13
2023-03-17T04:54:21.263Z,100291.91
2023-03-17T04:56:47.702Z,100298.50
2023-03-17T04:59:14.163Z,100287.09
2023-03-17T05:01:41.009Z,100284.53
2023-03-17T05:04:08.031Z,100289.25
2023-03-17T05:06:34.707Z,100286.69
2023-03-17T05:09:01.341Z,100298.47
2023-03-17T05:11:27.749Z,100296.94
2023-03-17T05:13:54.163Z,100307.22
2023-03-17T05:16:20.787Z,100286.38
2023-03-17T05:18:47.722Z,100290.00
2023-03-17T05:21:14.315Z,100293.78
2023-03-17T05:23:41.792Z,100293.03
2023-03-17T05:26:08.513Z,100286.16
2023-03-17T05:28:34.985Z,100280.91
2023-03-17T05:31:01.520Z,100287.38
2023-03-17T05:33:28.855Z,100287.09
2023-03-17T05:35:55.429Z,100288.81
2023-03-17T05:38:21.983Z,100296.09
2023-03-17T05:40:52.583Z,100290.72
2023-03-17T05:43:19.475Z,100294.25
2023-03-17T05:45:47.240Z,100289.03
2023-03-17T05:48:13.752Z,100287.97
2023-03-17T05:50:41.572Z,100287.56
2023-03-17T05:53:08.273Z,100281.38
2023-03-17T05:55:34.731Z,100263.50
2023-03-17T05:58:01.360Z,100280.81
2023-03-17T06:00:29.333Z,100290.59
2023-03-17T06:02:55.973Z,100281.94
2023-03-17T06:05:22.459Z,100298.22
2023-03-17T06:07:54.909Z,100290.25
2023-03-17T06:10:23.790Z,100286.59
2023-03-17T06:12:50.405Z,100282.31
2023-03-17T06:15:17.157Z,100277.50
2023-03-17T06:17:43.871Z,100290.28
2023-03-17T06:20:11.666Z,100276.22
2023-03-17T06:22:39.741Z,100273.38
2023-03-17T06:25:10.180Z,100285.38
2023-03-17T06:27:37.865Z,100282.00
2023-03-17T06:30:06.275Z,100276.50
2023-03-17T06:32:33.038Z,100268.09
2023-03-17T06:34:59.478Z,100263.81
2023-03-17T06:37:25.920Z,100265.84
2023-03-17T06:39:52.412Z,100275.19
2023-03-17T06:42:19.177Z,100281.03
2023-03-17T06:44:46.081Z,100294.25
2023-03-17T06:47:12.648Z,100281.38
2023-03-17T06:49:39.116Z,100284.00
2023-03-17T06:52:05.763Z,100287.81
2023-03-17T06:54:32.672Z,100274.31
2023-03-17T06:56:59.088Z,100276.13
2023-03-17T06:59:26.065Z,100268.66
2023-03-17T07:01:52.597Z,100260.22
2023-03-17T07:04:19.707Z,100268.06
2023-03-17T07:06:46.180Z,100273.41
2023-03-17T07:09:12.640Z,100280.31
2023-03-17T07:11:39.176Z,100292.38
2023-03-17T07:14:06.304Z,100291.28
2023-03-17T07:16:32.891Z,100290.50
2023-03-17T07:19:01.441Z,100289.13
2023-03-17T07:21:28.177Z,100281.38
2023-03-17T07:23:54.961Z,100284.69
2023-03-17T07:26:21.506Z,100283.25
2023-03-17T07:28:47.947Z,100268.66
2023-03-17T07:31:14.921Z,100285.22
2023-03-17T07:33:41.904Z,100279.56
2023-03-17T07:36:09.240Z,100265.34
2023-03-17T07:38:36.324Z,100265.34
2023-03-17T07:41:04.615Z,100270.72
2023-03-17T07:43:31.699Z,100263.28
2023-03-17T07:45:58.172Z,100264.88
2023-03-17T07:48:24.662Z,100260.91
2023-03-17T07:50:51.340Z,100258.28
2023-03-17T07:53:18.466Z,100266.19
2023-03-17T07:55:44.951Z,100249.72
2023-03-17T07:58:12.605Z,100243.19
2023-03-17T08:00:40.806Z,100242.44
2023-03-17T08:03:10.750Z,100244.78
2023-03-17T08:05:37.970Z,100251.41
2023-03-17T08:08:06.545Z,100249.25
2023-03-17T08:10:33.555Z,100250.97
2023-03-17T08:13:00.825Z,100241.13
2023-03-17T08:15:27.509Z,100237.91
2023-03-17T08:17:54.113Z,100240.41
2023-03-17T08:20:21.758Z,100245.03
2023-03-17T08:22:48.208Z,100236.06
2023-03-17T08:25:19.690Z,100231.19
2023-03-17T08:27:46.589Z,100233.25
2023-03-17T08:30:13.329Z,100227.94
2023-03-17T08:32:39.978Z,100226.13
2023-03-17T08:35:06.644Z,100225.81
2023-03-17T08:37:33.186Z,100232.47
2023-03-17T08:40:00.888Z,100219.25
2023-03-17T08:42:27.417Z,100223.69
2023-03-17T08:44:55.224Z,100224.41
2023-03-17T08:47:21.765Z,100226.47
2023-03-17T08:49:48.183Z,100226.84
2023-03-17T08:52:14.791Z,100234.25
2023-03-17T08:54:41.222Z,100226.72
2023-03-17T08:57:08.023Z,100231.66
2023-03-17T08:59:34.504Z,100232.25
2023-03-17T09:02:00.983Z,100223.69
2023-03-17T09:04:27.965Z,100214.88
2023-03-17T09:07:03.279Z,100221.41
2023-03-17T09:09:31.076Z,100205.16
2023-03-17T09:11:58.410Z,100217.97
2023-03-17T09:14:25.032Z,100221.88
2023-03-17T09:16:52.255Z,100226.00
2023-03-17T09:19:18.966Z,100223.31
2023-03-17T09:21:45.725Z,100225.38
2023-03-17T09:24:12.493Z,100219.47
2023-03-17T09:26:39.271Z,100221.00
2023-03-17T09:29:07.156Z,100212.81
2023-03-17T09:31:36.078Z,100214.56
2023-03-17T09:34:04.915Z,100215.94
2023-03-17T09:36:34.776Z,100204.91
2023-03-17T09:39:01.383Z,100211.47
2023-03-17T09:41:35.233Z,100203.16
2023-03-17T09:44:30.054Z,100192.81
2023-03-17T09:47:13.813Z,100189.53
2023-03-17T09:49:52.284Z,100199.16
2023-03-17T09:52:31.735Z,100189.78
2023-03-17T09:55:00.107Z,100187.88
2023-03-17T09:57:29.432Z,100190.97
2023-03-17T10:00:18.899Z,100179.03
2023-03-17T10:02:46.186Z,100177.38
2023-03-17T10:05:20.563Z,100174.13
2023-03-17T10:08:02.575Z,100176.78
2023-03-17T10:10:48.061Z,100181.16
2023-03-17T10:13:14.637Z,100178.31
2023-03-17T10:15:51.324Z,100176.06
2023-03-17T10:18:22.950Z,100166.81
2023-03-17T10:21:02.175Z,100174.13
2023-03-17T10:23:33.094Z,100173.03
2023-03-17T10:26:09.478Z,100178.97
2023-03-17T10:28:38.730Z,100174.13
2023-03-17T10:31:16.437Z,100180.97
2023-03-17T10:33:44.508Z,100172.25
2023-03-17T10:36:14.990Z,100159.06
2023-03-17T10:38:41.516Z,100161.31
2023-03-17T10:41:13.434Z,100166.88
2023-03-17T10:43:45.712Z,100163.28
2023-03-17T10:46:22.338Z,100162.81
2023-03-17T10:48:57.079Z,100155.16
2023-03-17T10:51:33.595Z,100158.00
2023-03-17T10:54:03.801Z,100156.38
2023-03-17T10:56:36.312Z,100163.47
2023-03-17T10:59:21.239Z,100149.09
2023-03-17T11:01:53.973Z,100150.31
2023-03-17T11:04:36.244Z,100151.19
2023-03-17T11:07:10.738Z,100150.91
2023-03-17T11:09:37.983Z,100146.22
2023-03-17T11:12:22.777Z,100144.97
2023-03-17T11:14:49.807Z,100138.25
2023-03-17T11:17:31.560Z,100137.41
2023-03-17T11:20:16.835Z,100140.94
2023-03-17T11:22:53.679Z,100147.97
2023-03-17T11:25:20.946Z,100139.38
2023-03-17T11:27:53.761Z,100147.72
2023-03-17T11:30:33.523Z,100134.94
2023-03-17T11:33:08.976Z,100139.38
2023-03-17T11:35:38.450Z,100140.91
2023-03-17T11:38:28.371Z,100142.69
2023-03-17T11:41:05.177Z,100147.69
2023-03-17T11:43:45.338Z,100154.28
2023-03-17T11:46:24.063Z,100137.88
2023-03-17T11:49:11.673Z,100142.91
2023-03-17T11:51:52.101Z,100131.22
2023-03-17T11:54:44.515Z,100131.81
2023-03-17T11:57:30.076Z,100125.91
2023-03-17T12:00:34.779Z,100125.31
2023-03-17T12:03:13.255Z,100120.38
2023-03-17T12:05:41.077Z,100118.75
2023-03-17T12:08:29.800Z,100123.53
2023-03-17T12:10:59.850Z,100114.31
2023-03-17T12:14:09.759Z,100114.09
2023-03-17T12:16:44.282Z,100111.91
2023-03-17T12:19:19.410Z,100111.41
2023-03-17T12:21:46.522Z,100104.47
2023-03-17T12:24:34.943Z,100102.47
2023-03-17T12:27:09.192Z,100115.94
2023-03-17T12:29:51.809Z,100114.53
2023-03-17T12:32:37.148Z,100099.94
2023-03-17T12:35:29.744Z,100096.63
2023-03-17T12:37:59.954Z,100091.50
2023-03-17T12:40:35.450Z,100086.06
2023-03-17T12:43:20.388Z,100090.44
2023-03-17T12:46:03.852Z,100076.97
2023-03-17T12:48:33.682Z,100072.16
2023-03-17T12:51:21.718Z,100065.84
2023-03-17T12:53:50.669Z,100062.50
2023-03-17T12:56:22.462Z,100063.31
2023-03-17T12:58:51.549Z,100058.38
2023-03-17T13:01:32.290Z,100053.78
2023-03-17T13:04:17.008Z,100068.50
2023-03-17T13:06:53.449Z,100061.31
2023-03-17T13:09:33.164Z,100063.66
2023-03-17T13:12:01.204Z,100064.94
2023-03-17T13:14:39.562Z,100048.97
2023-03-17T13:17:19.375Z,100048.56
2023-03-17T13:20:09.782Z,100041.34
2023-03-17T13:22:40.841Z,100043.91
2023-03-17T13:25:25.773Z,100036.84
2023-03-17T13:27:52.251Z,100033.03
2023-03-17T13:30:26.689Z,100038.06
2023-03-17T13:33:02.551Z,100041.88
2023-03-17T13:35:57.040Z,100039.13
2023-03-17T13:38:38.702Z,100040.53
2023-03-17T13:41:27.829Z,100045.06
2023-03-17T13:44:13.605Z,100048.47
2023-03-17T13:46:44.242Z,100039.69
2023-03-17T13:49:14.772Z,100045.00
2023-03-17T13:51:52.782Z,100039.84
2023-03-17T13:54:28.679Z,100038.38
2023-03-17T13:56:59.243Z,100040.72
2023-03-17T13:59:48.035Z,100034.88
2023-03-17T14:02:21.491Z,100048.63
2023-03-17T14:04:50.928Z,100034.31
2023-03-17T14:07:23.046Z,100036.16
2023-03-17T14:09:55.638Z,100042.31
2023-03-17T14:12:32.515Z,100036.53
2023-03-17T14:15:07.616Z,100030.34
2023-03-17T14:17:53.909Z,100020.81
2023-03-17T14:20:27.860Z,100026.19
2023-03-17T14:22:59.258Z,100010.53
2023-03-17T14:25:31.719Z,100006.53
2023-03-17T14:27:59.003Z,100004.53
2023-03-17T14:30:29.542Z,100010.75
2023-03-17T14:33:04.477Z,99998.97
2023-03-17T14:35:33.740Z,100008.03
2023-03-17T14:38:01.397Z,100009.00
2023-03-17T14:40:30.204Z,100005.03
2023-03-17T14:42:57.332Z,100001.06
2023-03-17T14:45:29.089Z,100003.66
2023-03-17T14:47:56.071Z,99993.81
2023-03-17T14:50:30.500Z,99991.13
2023-03-17T14:53:00.811Z,99991.81
2023-03-17T14:55:39.692Z,99988.31
2023-03-17T14:58:10.023Z,99989.75
2023-03-17T15:00:49.696Z,99991.81
2023-03-17T15:03:22.491Z,99974.53
2023-03-17T15:05:50.297Z,99979.38
2023-03-17T15:08:40.994Z,99977.72
2023-03-17T15:11:08.211Z,99969.34
2023-03-17T15:13:38.106Z,99981.47
2023-03-17T15:16:18.249Z,99983.09
2023-03-17T15:18:45.422Z,99980.28
2023-03-17T15:21:32.360Z,99971.88
2023-03-17T15:24:04.844Z,99979.41
2023-03-17T15:26:31.586Z,99976.13
2023-03-17T15:29:00.122Z,99981.91
2023-03-17T15:31:29.971Z,99973.66
2023-03-17T15:33:57.301Z,99974.03
2023-03-17T15:36:32.462Z,99972.53
2023-03-17T15:38:59.383Z,99958.59
2023-03-17T15:41:26.017Z,99962.41
2023-03-17T15:43:53.568Z,99963.84
2023-03-17T15:46:24.801Z,99965.03
2023-03-17T15:48:51.540Z,99955.69
2023-03-17T15:51:18.057Z,99955.03
2023-03-17T15:53:44.562Z,99949.31
2023-03-17T15:56:17.031Z,99951.84
2023-03-17T15:58:43.504Z,99971.28
2023-03-17T16:01:12.413Z,99970.19
2023-03-17T16:03:41.306Z,99960.00
2023-03-17T16:06:17.923Z,99957.88
2023-03-17T16:08:45.239Z,99960.28
2023-03-17T16:11:17.724Z,99964.44
2023-03-17T16:13:44.213Z,99972.97
2023-03-17T16:16:21.487Z,99962.19
2023-03-17T16:18:54.058Z,99970.28
2023-03-17T16:21:23.281Z,99964.16
2023-03-17T16:23:50.004Z,99965.66
2023-03-17T16:26:17.178Z,99962.63
2023-03-17T16:28:46.111Z,99968.97
2023-03-17T16:31:32.993Z,99962.47
2023-03-17T16:34:00.015Z,99959.25
2023-03-17T16:36:26.557Z,99958.94
2023-03-17T16:38:53.330Z,99958.91
2023-03-17T16:41:25.070Z,99961.44
2023-03-17T16:43:55.111Z,99960.13
2023-03-17T16:46:22.214Z,99959.25
2023-03-17T16:48:49.841Z,99953.25
2023-03-17T16:51:16.991Z,99964.88
2023-03-17T16:53:43.858Z,99966.50
2023-03-17T16:56:18.753Z,99962.03
2023-03-17T16:58:46.618Z,99965.63
2023-03-17T17:01:19.971Z,99962.69
2023-03-17T17:03:46.636Z,99960.50
2023-03-17T17:06:14.394Z,99965.25
2023-03-17T17:08:45.313Z,99959.00
2023-03-17T17:11:13.393Z,99955.94
2023-03-17T17:13:44.949Z,99963.06
2023-03-17T17:16:26.779Z,99962.53
2023-03-17T17:18:53.784Z,99958.56
2023-03-17T17:21:20.478Z,99966.00
2023-03-17T17:23:47.369Z,99965.59
2023-03-17T17:26:14.548Z,99975.16
2023-03-17T17:28:40.963Z,99966.06
2023-03-17T17:31:08.463Z,99969.06
2023-03-17T17:33:36.344Z,99975.41
2023-03-17T17:36:05.799Z,99966.28
2023-03-17T17:38:32.561Z,99963.19
2023-03-17T17:41:03.212Z,99968.41
2023-03-17T17:43:29.920Z,99962.75
2023-03-17T17:45:56.545Z,99971.69
2023-03-17T17:48:25.413Z,99964.66
2023-03-17T17:50:53.762Z,99977.78
2023-03-17T17:53:20.724Z,99976.78
2023-03-17T17:55:48.790Z,99977.91
2023-03-17T17:58:18.082Z,99988.00
2023-03-17T18:00:44.860Z,99979.81
2023-03-17T18:03:11.342Z,99992.94
2023-03-17T18:05:38.344Z,99997.59
2023-03-17T18:08:05.297Z,100003.81
2023-03-17T18:10:32.379Z,100008.91
2023-03-17T18:12:59.594Z,100002.81
2023-03-17T18:15:27.493Z,100016.09
2023-03-17T18:17:54.047Z,100019.03
2023-03-17T18:20:22.953Z,100023.53
2023-03-17T18:22:50.690Z,100024.38
2023-03-17T18:25:17.660Z,100025.34
2023-03-17T18:27:45.582Z,100036.59
2023-03-17T18:30:18.870Z,100037.47
2023-03-17T18:32:45.656Z,100032.25
2023-03-17T18:35:15.697Z,100035.75
2023-03-17T18:37:42.336Z,100035.06
2023-03-17T18:40:15.270Z,100034.06
2023-03-17T18:42:42.829Z,100033.66
2023-03-17T18:45:10.299Z,100030.34
2023-03-17T18:47:38.779Z,100027.88
2023-03-17T18:50:07.002Z,100029.81
2023-03-17T18:52:35.515Z,100033.53
2023-03-17T18:55:02.064Z,100030.84
2023-03-17T18:57:28.553Z,100016.94
2023-03-17T18:59:55.612Z,100007.38
2023-03-17T19:02:22.599Z,100012.03
2023-03-17T19:04:51.639Z,100007.13
2023-03-17T19:07:18.273Z,100007.34
2023-03-17T19:09:44.970Z,100010.56
2023-03-17T19:12:11.552Z,100001.66
2023-03-17T19:14:41.116Z,99999.31
2023-03-17T19:17:08.674Z,99996.84
2023-03-17T19:19:35.675Z,99991.72
2023-03-17T19:22:03.774Z,99991.25
2023-03-17T19:24:31.602Z,99990.97
2023-03-17T19:26:58.043Z,99978.38
2023-03-17T19:29:24.789Z,99983.84
2023-03-17T19:31:51.228Z,99974.00
2023-03-17T19:34:17.781Z,99971.69
2023-03-17T19:36:46.515Z,99975.75
2023-03-17T19:39:13.802Z,99966.09
2023-03-17T19:41:40.380Z,99975.19
2023-03-17T19:44:07.644Z,99968.84
2023-03-17T19:46:36.071Z,99964.78
2023-03-17T19:49:03.022Z,99960.94
2023-03-17T19:51:29.437Z,99967.31
2023-03-17T19:53:56.178Z,99975.81
2023-03-17T19:56:23.103Z,99969.84
2023-03-17T19:58:49.740Z,99965.38
2023-03-17T20:01:17.131Z,99964.59
2023-03-17T20:03:43.869Z,99968.50
2023-03-17T20:06:14.549Z,99968.91
2023-03-17T20:08:42.729Z,99965.63
2023-03-17T20:11:10.251Z,99969.59
2023-03-17T20:13:37.278Z,99978.50
2023-03-17T20:16:04.813Z,99983.78
2023-03-17T20:18:31.751Z,99986.03
2023-03-17T20:21:00.140Z,99986.81
2023-03-17T20:23:27.267Z,99988.69
2023-03-17T20:25:53.781Z,99992.59
2023-03-17T20:28:21.451Z,99989.09
2023-03-17T20:30:49.293Z,99994.09
2023-03-17T20:33:16.699Z,99990.06
2023-03-17T20:35:46.724Z,99990.84
2023-03-17T20:38:14.634Z,99987.25
2023-03-17T20:40:41.776Z,99974.31
2023-03-17T20:43:09.395Z,99975.69
2023-03-17T20:45:36.881Z,99976.59
2023-03-17T20:48:04.960Z,99983.22
2023-03-17T20:50:34.292Z,99980.19
2023-03-17T20:53:01.544Z,99986.59
2023-03-17T20:55:28.913Z,99988.41
2023-03-17T20:57:58.638Z,99980.69
2023-03-17T21:00:26.173Z,99993.06
2023-03-17T21:02:53.069Z,99994.28
2023-03-17T21:05:23.022Z,99999.72
2023-03-17T21:07:49.971Z,99984.84
2023-03-17T21:10:17.359Z,99992.09
2023-03-17T21:12:44.224Z,99979.91
2023-03-17T21:15:11.235Z,99984.81
2023-03-17T21:17:41.980Z,99980.63
2023-03-17T21:20:12.074Z,99973.47
2023-03-17T21:22:39.811Z,99972.16
2023-03-17T21:25:08.646Z,99971.19
2023-03-17T21:27:39.301Z,99971.44
2023-03-17T21:30:09.562Z,99971.09
2023-03-17T21:32:36.206Z,99969.78
2023-03-17T21:35:03.490Z,99973.09
2023-03-17T21:37:30.297Z,99970.09
2023-03-17T21:39:56.836Z,99971.78
2023-03-17T21:42:24.626Z,99969.19
2023-03-17T21:44:52.234Z,99969.06
2023-03-17T21:47:20.097Z,99974.28
2023-03-17T21:49:46.796Z,99973.34
2023-03-17T21:52:14.836Z,99963.75
2023-03-17T21:54:41.833Z,99962.97
2023-03-17T21:57:08.400Z,99959.50
2023-03-17T21:59:35.678Z,99975.66
2023-03-17T22:02:02.935Z,99971.97
2023-03-17T22:04:29.860Z,99975.69
2023-03-17T22:06:56.774Z,99973.09
2023-03-17T22:09:23.218Z,99973.69
2023-03-17T22:11:49.787Z,99971.34
2023-03-17T22:14:19.976Z,99965.00
2023-03-17T22:16:47.680Z,99964.41
2023-03-17T22:19:14.314Z,99972.59
2023-03-17T22:21:41.597Z,99967.50
2023-03-17T22:24:08.398Z,99965.63
2023-03-17T22:26:35.014Z,99977.22
2023-03-17T22:29:01.553Z,99980.16
2023-03-17T22:31:28.889Z,99968.34
2023-03-17T22:33:57.781Z,99973.53
2023-03-17T22:36:25.600Z,99981.22
2023-03-17T22:38:52.053Z,99970.97
2023-03-17T22:41:21.588Z,99969.38
2023-03-17T22:43:48.209Z,99974.06
2023-03-17T22:46:15.807Z,99973.41
2023-03-17T22:48:42.329Z,99960.97
2023-03-17T22:51:14.481Z,99972.56
2023-03-17T22:53:41.334Z,99975.38
2023-03-17T22:56:09.418Z,99980.41
2023-03-17T22:58:35.890Z,99984.59
2023-03-17T23:01:03.142Z,99982.34
2023-03-17T23:03:30.069Z,99993.06
2023-03-17T23:05:59.536Z,99981.22
2023-03-17T23:08:29.263Z,99985.84
2023-03-17T23:10:56.741Z,99987.66
2023-03-17T23:13:24.194Z,99991.31
2023-03-17T23:15:51.164Z,99999.13
2023-03-17T23:18:17.924Z,99989.19
2023-03-17T23:20:44.432Z,99988.78
2023-03-17T23:23:12.236Z,99985.94
2023-03-17T23:25:38.726Z,99984.13
2023-03-17T23:28:06.130Z,99996.59
2023-03-17T23:30:33.001Z,99995.75
2023-03-17T23:32:59.750Z,99994.47
2023-03-17T23:35:26.261Z,99993.84
2023-03-17T23:37:52.777Z,99997.38
2023-03-17T23:40:19.256Z,99987.84
2023-03-17T23:42:48.992Z,99994.66
2023-03-17T23:45:16.684Z,99995.19
2023-03-17T23:47:44.054Z,99999.59
2023-03-17T23:50:12.247Z,99997.38
2023-03-17T23:52:38.863Z,100001.00
2023-03-17T23:55:06.626Z,100009.00
2023-03-17T23:57:34.745Z,100005.16
